Time;durP1;ratioP1;P1;durP2;ratioP2;P2;SDS_P1;SDS_P2;PMS_P1;PMS_P2;Temp;Humidity;BMP_temperature;BMP_pressure;BME280_temperature;BME280_humidity;BME280_pressure;Samples;Min_cycle;Max_cycle;Signal;HPM_P1;HPM_P2
2021/01/11 00:03:21;;;;;;;;;;;-0.40;99.90;;;;;;10410821;28;20965;-65
2021/01/11 00:08:22;;;;;;;;;;;-0.40;99.90;;;;;;10410735;28;20016;-65
2021/01/11 00:13:23;;;;;;;;;;;-0.50;99.90;;;;;;10410415;28;19965;-65
2021/01/11 00:18:24;;;;;;;;;;;-0.50;99.90;;;;;;10410758;28;19964;-65
2021/01/11 00:23:26;;;;;;;;;;;-0.50;99.90;;;;;;10410183;28;20020;-65
2021/01/11 00:28:27;;;;;;;;;;;-0.50;99.90;;;;;;10408249;28;19975;-65
2021/01/11 00:33:28;;;;;;;;;;;-0.50;99.90;;;;;;10424530;28;20012;-65
2021/01/11 00:38:31;;;;;;;;;;;-0.50;99.90;;;;;;10408174;28;19948;-65
2021/01/11 00:43:33;;;;;;;;;;;-0.60;99.90;;;;;;10409217;28;20023;-64
2021/01/11 00:48:34;;;;;;;;;;;-0.80;99.90;;;;;;10408515;28;20024;-65
2021/01/11 00:53:35;;;;;;;;;;;-0.80;99.90;;;;;;10409596;28;20020;-65
2021/01/11 00:58:37;;;;;;;;;;;-0.70;99.90;;;;;;10408103;28;20293;-65
2021/01/11 01:03:39;;;;;;;;;;;-0.70;99.90;;;;;;10408659;28;20023;-65
2021/01/11 01:08:40;;;;;;;;;;;-0.60;99.90;;;;;;10408448;28;19929;-65
2021/01/11 01:13:43;;;;;;;;;;;-0.50;99.90;;;;;;10408377;28;20020;-65
2021/01/11 01:18:45;;;;;;;;;;;-0.40;99.90;;;;;;10423388;28;20023;-65
2021/01/11 01:23:46;;;;;;;;;;;-0.40;99.90;;;;;;10408321;28;20030;-65
2021/01/11 01:28:47;;;;;;;;;;;-0.30;99.90;;;;;;10407463;28;20015;-65
2021/01/11 01:33:49;;;;;;;;;;;-0.30;99.90;;;;;;10408064;28;19995;-65
2021/01/11 01:38:50;;;;;;;;;;;-0.30;99.90;;;;;;10406795;28;20019;-65
2021/01/11 01:43:51;;;;;;;;;;;-0.40;99.90;;;;;;10407462;28;20341;-65
2021/01/11 01:48:53;;;;;;;;;;;-0.40;99.90;;;;;;10406550;28;20007;-64
2021/01/11 01:53:55;;;;;;;;;;;-0.40;99.90;;;;;;10406662;28;19973;-65
2021/01/11 01:58:57;;;;;;;;;;;-0.50;99.90;;;;;;10406303;28;20047;-65
2021/01/11 02:03:58;;;;;;;;;;;-0.50;99.90;;;;;;10404848;28;20445;-65
2021/01/11 02:09:02;;;;;;;;;;;-0.60;99.90;;;;;;10405004;28;20015;-65
2021/01/11 02:14:27;;;;;;;;;;;-0.60;99.90;;;;;;10406180;28;19990;-65
2021/01/11 02:19:43;;;;;;;;;;;-0.70;99.90;;;;;;10405590;28;19933;-65
2021/01/11 02:24:50;;;;;;;;;;;-0.70;99.90;;;;;;10405516;28;19976;-65
2021/01/11 02:29:55;;;;;;;;;;;-0.80;99.90;;;;;;10404832;28;20461;-64
2021/01/11 02:34:58;;;;;;;;;;;-0.80;99.90;;;;;;10405015;28;19926;-65
2021/01/11 02:39:59;;;;;;;;;;;-0.80;99.90;;;;;;10404812;28;20348;-65
2021/01/11 02:45:01;;;;;;;;;;;-0.80;99.90;;;;;;10403320;28;20004;-65
2021/01/11 02:50:03;;;;;;;;;;;-0.80;99.90;;;;;;10403663;28;20270;-65
2021/01/11 02:55:13;;;;;;;;;;;-0.80;99.90;;;;;;10405424;28;20381;-65
2021/01/11 03:00:16;;;;;;;;;;;-0.90;99.90;;;;;;10403594;28;19933;-65
2021/01/11 03:05:17;;;;;;;;;;;-0.90;99.90;;;;;;10412123;28;20013;-65
2021/01/11 03:10:19;;;;;;;;;;;-0.90;99.90;;;;;;10412534;28;20381;-65
2021/01/11 03:15:20;;;;;;;;;;;-1.00;99.90;;;;;;10411710;28;20389;-65
2021/01/11 03:20:21;;;;;;;;;;;-0.90;99.90;;;;;;10410255;28;19972;-65
2021/01/11 03:25:22;;;;;;;;;;;-0.90;99.90;;;;;;10411932;28;20412;-65
2021/01/11 03:30:24;;;;;;;;;;;-0.90;99.90;;;;;;10411657;28;19972;-65
2021/01/11 03:35:26;;;;;;;;;;;-1.00;99.90;;;;;;10412253;28;19933;-65
2021/01/11 03:40:27;;;;;;;;;;;-1.10;99.90;;;;;;10412358;28;19967;-65
2021/01/11 03:45:28;;;;;;;;;;;-1.20;99.90;;;;;;10411462;28;20016;-65
2021/01/11 03:50:29;;;;;;;;;;;-1.10;99.90;;;;;;10411669;28;19964;-64
2021/01/11 03:55:31;;;;;;;;;;;-1.20;99.90;;;;;;10412161;28;19960;-65
2021/01/11 04:00:32;;;;;;;;;;;-1.30;99.90;;;;;;10411935;28;19964;-64
2021/01/11 04:05:35;;;;;;;;;;;-1.30;99.90;;;;;;10406552;28;20361;-65
2021/01/11 04:10:36;;;;;;;;;;;-1.20;99.90;;;;;;10405856;28;20385;-65
2021/01/11 04:15:37;;;;;;;;;;;-1.20;99.90;;;;;;10403229;28;20040;-65
2021/01/11 04:20:39;;;;;;;;;;;-1.30;99.90;;;;;;10404244;28;20394;-65
2021/01/11 04:25:40;;;;;;;;;;;-1.40;99.90;;;;;;10404031;28;19980;-65
2021/01/11 04:30:41;;;;;;;;;;;-1.40;99.90;;;;;;10409320;28;19979;-65
2021/01/11 04:35:42;;;;;;;;;;;-1.40;99.90;;;;;;10411399;28;19979;-65
2021/01/11 04:40:44;;;;;;;;;;;-1.40;99.90;;;;;;10411324;28;19925;-65
2021/01/11 04:45:45;;;;;;;;;;;-1.40;99.90;;;;;;10411225;28;20401;-65
2021/01/11 04:50:46;;;;;;;;;;;-1.40;99.90;;;;;;10410671;28;19968;-65
2021/01/11 04:55:48;;;;;;;;;;;-1.40;99.90;;;;;;10411152;28;19960;-65
2021/01/11 05:00:49;;;;;;;;;;;-1.50;99.90;;;;;;10409787;28;20012;-65
2021/01/11 05:05:50;;;;;;;;;;;-1.50;99.90;;;;;;10410041;28;20475;-65
2021/01/11 05:10:52;;;;;;;;;;;-1.60;99.90;;;;;;10410410;28;20012;-65
2021/01/11 05:15:53;;;;;;;;;;;-1.80;99.90;;;;;;10409692;28;20304;-64
2021/01/11 05:20:54;;;;;;;;;;;-1.70;99.90;;;;;;10409687;28;20341;-65
2021/01/11 05:25:56;;;;;;;;;;;-1.70;99.90;;;;;;10409646;28;20364;-64
2021/01/11 05:30:57;;;;;;;;;;;-1.60;99.90;;;;;;10408856;28;19983;-65
2021/01/11 05:36:01;;;;;;;;;;;-1.50;99.90;;;;;;10409410;28;20343;-64
2021/01/11 05:41:19;;;;;;;;;;;-1.60;99.90;;;;;;10408343;28;19968;-64
2021/01/11 05:46:21;;;;;;;;;;;-1.60;99.90;;;;;;10408150;28;19979;-64
2021/01/11 05:51:23;;;;;;;;;;;-1.80;99.90;;;;;;10408496;28;20259;-65
2021/01/11 05:56:24;;;;;;;;;;;-2.00;99.90;;;;;;10408541;28;20012;-65
2021/01/11 06:01:26;;;;;;;;;;;-2.30;99.90;;;;;;10422710;28;20011;-65
2021/01/11 06:06:28;;;;;;;;;;;-2.10;99.90;;;;;;10408225;28;19968;-65
2021/01/11 06:11:30;;;;;;;;;;;-2.00;99.90;;;;;;10407663;28;20047;-65
2021/01/11 06:16:32;;;;;;;;;;;-2.00;99.90;;;;;;10406776;28;19925;-65
2021/01/11 06:21:34;;;;;;;;;;;-1.90;99.90;;;;;;10407415;28;19948;-65
2021/01/11 06:26:36;;;;;;;;;;;-1.90;99.90;;;;;;10422176;28;19929;-65
2021/01/11 06:31:37;;;;;;;;;;;-1.90;99.90;;;;;;10406646;28;20002;-65
2021/01/11 06:36:39;;;;;;;;;;;-1.90;99.90;;;;;;10407402;28;19925;-64
2021/01/11 06:41:40;;;;;;;;;;;-1.90;99.90;;;;;;10406904;28;20019;-65
2021/01/11 06:46:42;;;;;;;;;;;-1.90;99.90;;;;;;10406156;28;19979;-65
2021/01/11 06:51:45;;;;;;;;;;;-2.20;99.90;;;;;;10421217;28;20373;-65
2021/01/11 06:56:47;;;;;;;;;;;-2.50;99.90;;;;;;10406517;28;19976;-64
2021/01/11 07:01:48;;;;;;;;;;;-2.30;99.90;;;;;;10405776;28;20414;-64
2021/01/11 07:06:58;;;;;;;;;;;-2.20;99.90;;;;;;10406232;28;20464;-64
2021/01/11 07:12:03;;;;;;;;;;;-2.10;99.90;;;;;;10405927;28;20016;-65
2021/01/11 07:17:05;;;;;;;;;;;-2.30;99.90;;;;;;10404961;28;19931;-65
2021/01/11 07:22:09;;;;;;;;;;;-2.30;99.90;;;;;;10405482;28;19929;-65
2021/01/11 07:27:11;;;;;;;;;;;-2.00;99.90;;;;;;10405256;28;20051;-65
2021/01/11 07:32:12;;;;;;;;;;;-2.00;99.90;;;;;;10405227;28;20015;-64
2021/01/11 07:37:13;;;;;;;;;;;-2.00;99.90;;;;;;10404919;28;20468;-65
2021/01/11 07:42:18;;;;;;;;;;;-1.90;99.90;;;;;;10405641;28;19956;-65
2021/01/11 07:47:19;;;;;;;;;;;-1.90;99.90;;;;;;10404240;28;20116;-64
2021/01/11 07:52:21;;;;;;;;;;;-1.80;99.90;;;;;;10404911;28;19929;-64
2021/01/11 07:57:24;;;;;;;;;;;-1.80;99.90;;;;;;10404776;28;20393;-64
2021/01/11 08:02:26;;;;;;;;;;;-1.60;99.90;;;;;;10405056;28;19983;-64
2021/01/11 08:07:31;;;;;;;;;;;-1.50;99.90;;;;;;10412657;28;19925;-65
2021/01/11 08:12:33;;;;;;;;;;;-1.40;99.90;;;;;;10411590;28;19979;-65
2021/01/11 08:17:40;;;;;;;;;;;-1.20;99.90;;;;;;10411880;28;19960;-65
2021/01/11 08:22:41;;;;;;;;;;;-1.40;99.90;;;;;;10412222;28;19968;-64
2021/01/11 08:27:46;;;;;;;;;;;-1.30;99.90;;;;;;10427398;28;19969;-65
2021/01/11 08:32:47;;;;;;;;;;;-1.40;99.90;;;;;;10411217;28;19971;-65
2021/01/11 08:37:49;;;;;;;;;;;-1.20;99.90;;;;;;10410212;28;20016;-65
2021/01/11 08:42:50;;;;;;;;;;;-0.90;99.90;;;;;;10411258;28;19964;-65
2021/01/11 08:48:08;;;;;;;;;;;-0.80;99.90;;;;;;10410910;28;19972;-65
2021/01/11 08:53:19;;;;;;;;;;;-0.70;99.90;;;;;;10410992;28;19979;-65
2021/01/11 08:58:21;;;;;;;;;;;-0.60;99.90;;;;;;10410311;28;20397;-65
2021/01/11 09:03:40;;;;;;;;;;;-0.40;99.90;;;;;;10410140;28;19996;-65
2021/01/11 09:08:42;;;;;;;;;;;-0.30;99.90;;;;;;10410278;28;20016;-65
2021/01/11 09:13:43;;;;;;;;;;;-0.10;99.90;;;;;;10409296;28;19979;-65
2021/01/11 09:18:44;;;;;;;;;;;-0.10;99.90;;;;;;10409745;28;20008;-65
2021/01/11 09:23:45;;;;;;;;;;;0.00;99.90;;;;;;10409513;28;20066;-65
2021/01/11 09:28:47;;;;;;;;;;;0.10;99.90;;;;;;10409447;28;19972;-65
2021/01/11 09:33:48;;;;;;;;;;;0.30;99.90;;;;;;10409198;28;20015;-65
2021/01/11 09:38:50;;;;;;;;;;;0.40;99.90;;;;;;10409278;28;19964;-65
2021/01/11 09:43:51;;;;;;;;;;;0.50;99.90;;;;;;10408264;28;19976;-65
2021/01/11 09:48:52;;;;;;;;;;;0.90;99.90;;;;;;10408739;28;20011;-65
2021/01/11 09:53:54;;;;;;;;;;;1.00;99.90;;;;;;10407495;28;19925;-65
2021/01/11 09:58:55;;;;;;;;;;;1.10;99.90;;;;;;10407854;28;19948;-65
2021/01/11 10:03:56;;;;;;;;;;;1.30;99.90;;;;;;10408043;28;19960;-65
2021/01/11 10:08:58;;;;;;;;;;;1.40;99.90;;;;;;10408328;28;19925;-65
2021/01/11 10:13:59;;;;;;;;;;;1.50;99.90;;;;;;10407506;28;19925;-65
2021/01/11 10:19:00;;;;;;;;;;;1.50;99.90;;;;;;10407557;28;19973;-65
2021/01/11 10:24:02;;;;;;;;;;;1.30;99.90;;;;;;10407657;28;19925;-65
2021/01/11 10:29:04;;;;;;;;;;;1.30;99.90;;;;;;10406178;28;20008;-65
2021/01/11 10:34:05;;;;;;;;;;;1.30;99.90;;;;;;10406905;28;19961;-65
2021/01/11 10:39:06;;;;;;;;;;;1.50;99.90;;;;;;10407181;28;19979;-65
2021/01/11 10:44:08;;;;;;;;;;;1.60;99.90;;;;;;10406231;28;20008;-65
2021/01/11 10:49:09;;;;;;;;;;;1.70;99.90;;;;;;10406148;28;20004;-65
2021/01/11 10:54:11;;;;;;;;;;;1.80;99.90;;;;;;10406179;28;19972;-65
2021/01/11 10:59:12;;;;;;;;;;;1.80;99.90;;;;;;10406175;28;19925;-65
2021/01/11 11:04:14;;;;;;;;;;;1.70;99.90;;;;;;10406089;28;19935;-65
2021/01/11 11:09:15;;;;;;;;;;;1.80;99.90;;;;;;10406068;28;19973;-65
2021/01/11 11:14:17;;;;;;;;;;;1.90;99.90;;;;;;10405454;28;19935;-65
2021/01/11 11:19:18;;;;;;;;;;;2.20;99.90;;;;;;10405261;28;19973;-65
2021/01/11 11:24:19;;;;;;;;;;;2.50;99.90;;;;;;10405873;28;20144;-66
2021/01/11 11:29:21;;;;;;;;;;;2.70;99.90;;;;;;10404859;28;20380;-65
2021/01/11 11:34:22;;;;;;;;;;;3.10;99.90;;;;;;10405128;28;20759;-65
2021/01/11 11:39:23;;;;;;;;;;;3.30;99.90;;;;;;10424500;28;20437;-66
2021/01/11 11:44:25;;;;;;;;;;;3.50;99.90;;;;;;10428686;28;20276;-65
2021/01/11 11:49:27;;;;;;;;;;;3.50;99.90;;;;;;10412815;28;19928;-65
2021/01/11 11:54:28;;;;;;;;;;;3.50;99.90;;;;;;10413591;28;19994;-65
2021/01/11 11:59:29;;;;;;;;;;;3.50;99.90;;;;;;10412751;28;19975;-65
2021/01/11 12:04:39;;;;;;;;;;;3.40;99.90;;;;;;10413230;28;19925;-65
2021/01/11 12:09:41;;;;;;;;;;;3.70;99.90;;;;;;10412658;28;19948;-65
2021/01/11 12:14:43;;;;;;;;;;;3.80;99.90;;;;;;10427305;28;20189;-65
2021/01/11 12:19:44;;;;;;;;;;;3.60;99.90;;;;;;10411548;28;20365;-65
2021/01/11 12:24:46;;;;;;;;;;;3.30;99.90;;;;;;10411912;28;19937;-66
2021/01/11 12:29:47;;;;;;;;;;;3.40;99.90;;;;;;10411328;28;19999;-65
2021/01/11 12:34:48;;;;;;;;;;;3.30;99.90;;;;;;10412301;28;20016;-65
2021/01/11 12:39:50;;;;;;;;;;;3.50;99.90;;;;;;10410940;28;20393;-66
2021/01/11 12:44:51;;;;;;;;;;;3.70;99.90;;;;;;10426659;28;19925;-65
2021/01/11 12:49:52;;;;;;;;;;;4.00;99.90;;;;;;10410545;28;19968;-65
2021/01/11 12:54:54;;;;;;;;;;;3.90;99.90;;;;;;10411112;28;19971;-65
2021/01/11 12:59:55;;;;;;;;;;;4.00;99.90;;;;;;10425479;28;20060;-65
2021/01/11 13:04:56;;;;;;;;;;;3.90;99.90;;;;;;10409170;28;20035;-65
2021/01/11 13:09:58;;;;;;;;;;;4.00;99.90;;;;;;10410204;28;19964;-65
2021/01/11 13:15:01;;;;;;;;;;;4.10;99.90;;;;;;10409712;28;19967;-65
2021/01/11 13:20:03;;;;;;;;;;;4.10;99.90;;;;;;10410020;28;19991;-65
2021/01/11 13:25:05;;;;;;;;;;;4.20;99.90;;;;;;10409323;28;19983;-65
2021/01/11 13:30:06;;;;;;;;;;;4.30;99.90;;;;;;10409076;28;20015;-65
2021/01/11 13:35:08;;;;;;;;;;;4.30;99.90;;;;;;10409770;28;20330;-65
2021/01/11 13:40:10;;;;;;;;;;;4.40;99.90;;;;;;10408704;28;19972;-65
2021/01/11 13:45:11;;;;;;;;;;;4.30;99.90;;;;;;10408893;28;19931;-65
2021/01/11 13:50:13;;;;;;;;;;;4.30;99.90;;;;;;10408673;28;20419;-66
2021/01/11 13:55:14;;;;;;;;;;;4.20;99.90;;;;;;10409298;28;20020;-65
2021/01/11 14:00:16;;;;;;;;;;;4.00;99.90;;;;;;10407465;28;19988;-65
2021/01/11 14:05:18;;;;;;;;;;;3.90;99.90;;;;;;10408883;28;19968;-65
2021/01/11 14:10:19;;;;;;;;;;;4.00;99.90;;;;;;10407931;28;20340;-65
2021/01/11 14:15:20;;;;;;;;;;;3.90;99.90;;;;;;10407516;28;20430;-65
2021/01/11 14:20:22;;;;;;;;;;;4.00;99.90;;;;;;10404089;28;20385;-71
2021/01/11 14:25:24;;;;;;;;;;;4.00;99.90;;;;;;10410518;28;19933;-68
2021/01/11 14:30:26;;;;;;;;;;;4.20;99.90;;;;;;10402281;28;19964;-68
2021/01/11 14:35:28;;;;;;;;;;;4.20;99.90;;;;;;10404132;28;19979;-68
2021/01/11 14:40:29;;;;;;;;;;;4.20;99.90;;;;;;10401351;28;19991;-68
2021/01/11 14:45:30;;;;;;;;;;;4.10;99.90;;;;;;10404612;28;20032;-68
2021/01/11 14:50:32;;;;;;;;;;;4.10;99.90;;;;;;10402914;28;19936;-68
2021/01/11 14:55:41;;;;;;;;;;;4.10;99.90;;;;;;10401248;28;20006;-68
2021/01/11 15:00:42;;;;;;;;;;;4.00;99.90;;;;;;10404941;28;20393;-68
2021/01/11 15:05:44;;;;;;;;;;;4.00;99.90;;;;;;10405007;28;19944;-68
2021/01/11 15:10:45;;;;;;;;;;;4.00;99.90;;;;;;10405591;28;20012;-68
2021/01/11 15:15:48;;;;;;;;;;;3.90;99.90;;;;;;10405432;28;20370;-68
2021/01/11 15:20:49;;;;;;;;;;;3.80;99.90;;;;;;10405496;28;20009;-68
2021/01/11 15:25:51;;;;;;;;;;;3.70;99.90;;;;;;10405437;28;19968;-68
2021/01/11 15:30:53;;;;;;;;;;;3.70;99.90;;;;;;10405083;28;19925;-68
2021/01/11 15:35:56;;;;;;;;;;;3.70;99.90;;;;;;10404960;28;20004;-68
2021/01/11 15:40:58;;;;;;;;;;;3.70;99.90;;;;;;10404761;28;20451;-68
2021/01/11 15:46:00;;;;;;;;;;;3.70;99.90;;;;;;10403184;28;19948;-68
2021/01/11 15:51:03;;;;;;;;;;;3.80;99.90;;;;;;10404441;28;20311;-68
2021/01/11 15:56:04;;;;;;;;;;;3.70;99.90;;;;;;10403711;28;20008;-68
2021/01/11 16:01:06;;;;;;;;;;;3.70;99.90;;;;;;10404627;28;19933;-67
2021/01/11 16:06:11;;;;;;;;;;;3.80;99.90;;;;;;10419546;28;20027;-67
2021/01/11 16:11:19;;;;;;;;;;;3.80;99.90;;;;;;10404446;28;20028;-64
2021/01/11 16:16:20;;;;;;;;;;;3.70;99.90;;;;;;10403767;28;19929;-65
2021/01/11 16:21:22;;;;;;;;;;;3.70;99.90;;;;;;10404722;28;19929;-65
2021/01/11 16:26:25;;;;;;;;;;;3.70;99.90;;;;;;10409559;28;20399;-65
2021/01/11 16:31:45;;;;;;;;;;;3.80;99.90;;;;;;10412118;28;19932;-65
2021/01/11 16:36:46;;;;;;;;;;;3.70;99.90;;;;;;10411834;28;20257;-65
2021/01/11 16:41:48;;;;;;;;;;;3.70;99.90;;;;;;10411670;28;19979;-65
2021/01/11 16:46:49;;;;;;;;;;;3.70;99.90;;;;;;10409804;28;19936;-65
2021/01/11 16:51:50;;;;;;;;;;;3.60;99.90;;;;;;10411410;28;19932;-65
2021/01/11 16:56:55;;;;;;;;;;;3.50;99.90;;;;;;10411002;28;19972;-65
2021/01/11 17:01:56;;;;;;;;;;;3.50;99.90;;;;;;10410306;28;19972;-65
2021/01/11 17:06:58;;;;;;;;;;;3.60;99.90;;;;;;10408838;28;19925;-65
2021/01/11 17:11:59;;;;;;;;;;;3.50;99.90;;;;;;10408542;28;19925;-65
2021/01/11 17:17:01;;;;;;;;;;;3.50;99.90;;;;;;10408627;28;19925;-64
2021/01/11 17:22:02;;;;;;;;;;;3.50;99.90;;;;;;10409240;28;19929;-65
2021/01/11 17:27:03;;;;;;;;;;;3.60;99.90;;;;;;10408195;28;20348;-65
2021/01/11 17:32:06;;;;;;;;;;;3.50;99.90;;;;;;10408848;28;20381;-65
2021/01/11 17:37:08;;;;;;;;;;;3.50;99.90;;;;;;10407655;28;20350;-64
2021/01/11 17:42:10;;;;;;;;;;;3.50;99.90;;;;;;10423975;28;19976;-65
2021/01/11 17:47:11;;;;;;;;;;;3.50;99.90;;;;;;10407717;28;20011;-64
2021/01/11 17:52:12;;;;;;;;;;;3.50;99.90;;;;;;10408789;28;19932;-64
2021/01/11 17:57:14;;;;;;;;;;;3.50;99.90;;;;;;10408503;28;20027;-64
2021/01/11 18:02:15;;;;;;;;;;;3.50;99.90;;;;;;10407672;28;20011;-64
2021/01/11 18:07:17;;;;;;;;;;;3.50;99.90;;;;;;10408175;28;19936;-65
2021/01/11 18:12:18;;;;;;;;;;;3.40;99.90;;;;;;10407521;28;20020;-64
2021/01/11 18:17:24;;;;;;;;;;;3.50;99.90;;;;;;10406532;28;20337;-65
2021/01/11 18:22:27;;;;;;;;;;;3.60;99.90;;;;;;10402469;28;20138;-65
2021/01/11 18:27:28;;;;;;;;;;;3.60;99.90;;;;;;10401248;28;19933;-65
2021/01/11 18:32:33;;;;;;;;;;;3.60;99.90;;;;;;10404098;28;20004;-64
2021/01/11 18:37:35;;;;;;;;;;;3.60;99.90;;;;;;10403594;28;20270;-65
2021/01/11 18:42:36;;;;;;;;;;;3.60;99.90;;;;;;10404602;28;20024;-65
2021/01/11 18:47:37;;;;;;;;;;;3.60;99.90;;;;;;10403835;28;20016;-64
2021/01/11 18:52:40;;;;;;;;;;;3.60;99.90;;;;;;10406189;28;19924;-65
2021/01/11 18:57:41;;;;;;;;;;;3.60;99.90;;;;;;10405763;28;19972;-65
2021/01/11 19:02:43;;;;;;;;;;;3.60;99.90;;;;;;10404809;28;20008;-64
2021/01/11 19:07:45;;;;;;;;;;;3.60;99.90;;;;;;10405863;28;19936;-64
2021/01/11 19:12:54;;;;;;;;;;;3.60;99.90;;;;;;10402902;28;19947;-65
2021/01/11 19:17:57;;;;;;;;;;;3.60;99.90;;;;;;10402167;28;19929;-65
2021/01/11 19:22:59;;;;;;;;;;;3.60;99.90;;;;;;10402177;28;19968;-65
2021/01/11 19:28:00;;;;;;;;;;;3.60;99.90;;;;;;10401354;28;20045;-65
2021/01/11 19:33:01;;;;;;;;;;;3.60;99.90;;;;;;10416364;28;19983;-65
2021/01/11 19:38:03;;;;;;;;;;;3.50;99.90;;;;;;10400531;28;20059;-65
2021/01/11 19:43:04;;;;;;;;;;;3.60;99.90;;;;;;10401953;28;19976;-65
2021/01/11 19:48:05;;;;;;;;;;;3.70;99.90;;;;;;10416422;28;20019;-65
2021/01/11 19:53:08;;;;;;;;;;;3.80;99.90;;;;;;10418768;28;19932;-65
2021/01/11 19:58:09;;;;;;;;;;;3.80;99.90;;;;;;10404272;28;20324;-65
2021/01/11 20:03:10;;;;;;;;;;;3.70;99.90;;;;;;10410429;28;20407;-65
2021/01/11 20:08:12;;;;;;;;;;;3.70;99.90;;;;;;10411054;28;19928;-65
2021/01/11 20:13:13;;;;;;;;;;;3.80;99.90;;;;;;10428217;28;19936;-65
2021/01/11 20:18:16;;;;;;;;;;;3.70;99.90;;;;;;10410004;28;19991;-65
2021/01/11 20:23:18;;;;;;;;;;;3.80;99.90;;;;;;10411099;28;19989;-65
2021/01/11 20:28:19;;;;;;;;;;;3.90;99.90;;;;;;10410651;28;20106;-64
2021/01/11 20:33:20;;;;;;;;;;;3.90;99.90;;;;;;10409981;28;20365;-64
2021/01/11 20:38:22;;;;;;;;;;;4.00;99.90;;;;;;10408642;28;19929;-65
2021/01/11 20:43:23;;;;;;;;;;;4.00;99.90;;;;;;10406775;28;19925;-65
2021/01/11 20:48:25;;;;;;;;;;;3.90;99.90;;;;;;10408599;28;20154;-65
2021/01/11 20:53:29;;;;;;;;;;;4.00;99.90;;;;;;10408241;28;19964;-65
2021/01/11 20:58:31;;;;;;;;;;;4.00;99.90;;;;;;10411491;28;19963;-65
2021/01/11 21:03:32;;;;;;;;;;;4.10;99.90;;;;;;10408692;28;20324;-65
2021/01/11 21:08:34;;;;;;;;;;;4.10;99.90;;;;;;10410037;28;20019;-65
2021/01/11 21:13:35;;;;;;;;;;;4.10;99.90;;;;;;10409281;28;19925;-64
2021/01/11 21:18:37;;;;;;;;;;;4.20;99.90;;;;;;10408913;28;19984;-65
2021/01/11 21:23:39;;;;;;;;;;;4.20;99.90;;;;;;10410026;28;19976;-65
2021/01/11 21:28:40;;;;;;;;;;;4.20;99.90;;;;;;10409052;28;19972;-65
2021/01/11 21:33:41;;;;;;;;;;;4.20;99.90;;;;;;10408961;28;19932;-65
2021/01/11 21:38:43;;;;;;;;;;;4.30;99.90;;;;;;10408894;28;20024;-64
2021/01/11 21:43:44;;;;;;;;;;;4.40;99.90;;;;;;10408627;28;19967;-64
2021/01/11 21:48:46;;;;;;;;;;;4.40;99.90;;;;;;10408264;28;20011;-65
2021/01/11 21:53:47;;;;;;;;;;;4.20;99.90;;;;;;10408222;28;19925;-64
2021/01/11 21:58:49;;;;;;;;;;;4.20;99.90;;;;;;10407785;28;19955;-64
2021/01/11 22:03:50;;;;;;;;;;;4.30;99.90;;;;;;10423117;28;19929;-64
2021/01/11 22:08:52;;;;;;;;;;;4.30;99.90;;;;;;10407975;28;19935;-64
2021/01/11 22:13:54;;;;;;;;;;;4.40;99.90;;;;;;10422726;28;19944;-64
2021/01/11 22:18:55;;;;;;;;;;;4.40;99.90;;;;;;10407501;28;19929;-65
2021/01/11 22:23:57;;;;;;;;;;;4.40;99.90;;;;;;10406690;28;20022;-64
2021/01/11 22:28:58;;;;;;;;;;;4.40;99.90;;;;;;10406591;28;20425;-64
2021/01/11 22:33:59;;;;;;;;;;;4.30;99.90;;;;;;10406865;28;20040;-65
2021/01/11 22:39:00;;;;;;;;;;;4.40;99.90;;;;;;10421930;28;19975;-65
2021/01/11 22:44:02;;;;;;;;;;;4.30;99.90;;;;;;10406749;28;19968;-65
2021/01/11 22:49:03;;;;;;;;;;;4.40;99.90;;;;;;10421349;28;19983;-64
2021/01/11 22:54:04;;;;;;;;;;;4.50;99.90;;;;;;10405716;28;20412;-65
2021/01/11 22:59:07;;;;;;;;;;;4.50;99.90;;;;;;10405190;28;19925;-64
2021/01/11 23:04:09;;;;;;;;;;;4.50;99.90;;;;;;10405584;28;19975;-65
2021/01/11 23:09:11;;;;;;;;;;;4.50;99.90;;;;;;10405312;28;20028;-64
2021/01/11 23:14:13;;;;;;;;;;;4.60;99.90;;;;;;10403723;28;19972;-64
2021/01/11 23:19:14;;;;;;;;;;;4.60;99.90;;;;;;10397903;28;20020;-65
2021/01/11 23:24:16;;;;;;;;;;;4.60;99.90;;;;;;10404584;28;20396;-65
2021/01/11 23:29:21;;;;;;;;;;;4.60;99.90;;;;;;10400140;28;20404;-65
2021/01/11 23:34:22;;;;;;;;;;;4.60;99.90;;;;;;10404560;28;19976;-64
2021/01/11 23:39:23;;;;;;;;;;;4.60;99.90;;;;;;10404976;28;19983;-64
2021/01/11 23:44:25;;;;;;;;;;;4.60;99.90;;;;;;10404759;28;19980;-64
2021/01/11 23:49:26;;;;;;;;;;;4.60;99.90;;;;;;10403593;28;19929;-65
2021/01/11 23:54:27;;;;;;;;;;;4.50;99.90;;;;;;10403837;28;20020;-64
2021/01/11 23:59:28;;;;;;;;;;;4.50;99.90;;;;;;10403665;28;19987;-65
